Time;durP1;ratioP1;P1;durP2;ratioP2;P2;SDS_P1;SDS_P2;PMS_P1;PMS_P2;Temp;Humidity;BMP_temperature;BMP_pressure;BME280_temperature;BME280_humidity;BME280_pressure;Samples;Min_cycle;Max_cycle;Signal;HPM_P1;HPM_P2
2020/12/04 00:00:22;;;;;;;6.30;3.63;;;4.80;72.90;;;;;;5091867;28;20035;-72
2020/12/04 00:02:48;;;;;;;6.87;4.17;;;4.80;72.50;;;;;;5090977;28;20455;-73
2020/12/04 00:05:13;;;;;;;6.53;4.13;;;4.90;72.30;;;;;;5090239;28;20031;-72
2020/12/04 00:07:39;;;;;;;7.83;3.60;;;4.90;72.10;;;;;;5091348;28;20097;-72
2020/12/04 00:10:05;;;;;;;5.60;3.20;;;4.90;72.00;;;;;;5091657;28;20154;-74
2020/12/04 00:12:31;;;;;;;6.17;3.23;;;4.90;72.00;;;;;;5090534;28;20081;-75
2020/12/04 00:14:56;;;;;;;8.80;3.90;;;4.90;71.80;;;;;;5091957;28;20031;-71
2020/12/04 00:17:22;;;;;;;5.40;3.47;;;5.00;71.70;;;;;;5091046;28;20020;-73
2020/12/04 00:19:47;;;;;;;4.40;3.20;;;5.00;71.70;;;;;;5091091;28;20431;-72
2020/12/04 00:22:13;;;;;;;5.47;3.00;;;5.00;71.80;;;;;;5091537;28;20055;-74
2020/12/04 00:24:39;;;;;;;5.27;2.90;;;4.90;71.50;;;;;;5091930;28;20488;-72
2020/12/04 00:27:04;;;;;;;7.03;3.60;;;5.00;71.50;;;;;;5092268;28;20439;-73
2020/12/04 00:29:30;;;;;;;5.73;3.00;;;5.00;70.90;;;;;;5090593;28;20030;-75
2020/12/04 00:31:56;;;;;;;5.87;3.50;;;5.00;71.50;;;;;;5092228;28;20373;-72
2020/12/04 00:34:23;;;;;;;6.23;3.50;;;5.00;70.80;;;;;;5089313;28;20023;-73
2020/12/04 00:36:49;;;;;;;5.57;3.23;;;;;;;;;;5091287;28;20081;-73
2020/12/04 00:39:15;;;;;;;6.37;3.37;;;5.00;71.00;;;;;;5089726;28;20490;-73
2020/12/04 00:41:42;;;;;;;5.10;3.17;;;5.00;71.40;;;;;;5091531;28;20024;-73
2020/12/04 00:44:07;;;;;;;5.43;3.27;;;5.10;71.30;;;;;;5090082;28;20071;-73
2020/12/04 00:46:33;;;;;;;6.53;2.77;;;5.10;70.90;;;;;;5091531;28;20528;-73
2020/12/04 00:48:58;;;;;;;6.27;3.17;;;5.10;70.90;;;;;;5091922;28;20554;-73
2020/12/04 00:51:25;;;;;;;5.33;2.47;;;5.10;71.20;;;;;;5090273;28;20040;-72
2020/12/04 00:53:50;;;;;;;5.97;3.20;;;5.10;71.00;;;;;;5091477;28;20454;-72
2020/12/04 00:56:16;;;;;;;5.20;2.73;;;5.10;70.20;;;;;;5089288;28;20027;-72
2020/12/04 00:58:45;;;;;;;4.70;2.70;;;5.10;71.90;;;;;;5091498;28;20021;-73
2020/12/04 01:01:10;;;;;;;5.43;2.80;;;5.20;71.00;;;;;;5089289;28;20425;-72
2020/12/04 01:03:36;;;;;;;4.83;3.07;;;5.20;70.80;;;;;;5091253;28;20138;-72
2020/12/04 01:06:02;;;;;;;4.60;2.70;;;5.20;70.80;;;;;;5092553;28;20103;-72
2020/12/04 01:08:27;;;;;;;4.33;2.60;;;5.20;70.80;;;;;;5090690;28;20035;-73
2020/12/04 01:10:53;;;;;;;5.03;2.77;;;5.30;71.20;;;;;;5091205;28;20024;-72
2020/12/04 01:13:19;;;;;;;4.30;2.37;;;5.20;71.30;;;;;;5090627;28;20035;-73
2020/12/04 01:15:44;;;;;;;5.27;2.57;;;5.30;71.50;;;;;;5092473;28;20024;-72
2020/12/04 01:18:10;;;;;;;4.77;2.80;;;5.30;71.50;;;;;;5090488;28;20024;-72
2020/12/04 01:20:36;;;;;;;4.33;2.50;;;5.30;71.60;;;;;;5091303;28;20029;-72
2020/12/04 01:23:01;;;;;;;5.10;2.63;;;5.30;71.70;;;;;;5091999;28;20056;-72
2020/12/04 01:25:27;;;;;;;4.70;2.73;;;5.30;72.00;;;;;;5091855;28;20071;-72
2020/12/04 01:27:53;;;;;;;4.57;2.70;;;5.30;72.00;;;;;;5091129;28;20031;-72
2020/12/04 01:30:18;;;;;;;3.17;2.20;;;5.30;72.10;;;;;;5090389;28;20136;-72
2020/12/04 01:32:45;;;;;;;3.53;2.10;;;5.30;72.30;;;;;;5092095;28;20064;-72
2020/12/04 01:35:11;;;;;;;4.07;2.27;;;5.30;72.30;;;;;;5090431;28;20024;-73
2020/12/04 01:37:36;;;;;;;3.73;2.10;;;5.30;72.40;;;;;;5091015;28;20028;-73
2020/12/04 01:40:02;;;;;;;3.53;2.20;;;5.30;72.50;;;;;;5091114;28;20453;-73
2020/12/04 01:42:28;;;;;;;2.60;1.80;;;5.30;72.70;;;;;;5090361;28;20673;-72
2020/12/04 01:44:54;;;;;;;3.50;2.20;;;5.40;72.40;;;;;;5092241;28;20031;-72
2020/12/04 01:47:19;;;;;;;4.43;2.10;;;5.40;72.50;;;;;;5090373;28;20032;-73
2020/12/04 01:49:45;;;;;;;3.67;1.83;;;5.40;72.40;;;;;;5090909;28;20035;-72
2020/12/04 01:52:12;;;;;;;3.23;1.80;;;5.40;72.50;;;;;;5092745;28;20036;-73
2020/12/04 01:54:38;;;;;;;3.50;1.57;;;5.50;72.00;;;;;;5095866;28;20464;-73
2020/12/04 01:57:04;;;;;;;3.17;1.60;;;5.50;71.90;;;;;;5094540;28;20073;-73
2020/12/04 01:59:30;;;;;;;3.17;1.60;;;5.70;72.30;;;;;;5095113;28;20028;-72
2020/12/04 02:02:12;;;;;;;2.00;1.50;;;5.50;72.50;;;;;;5095708;28;20427;-72
2020/12/04 02:04:37;;;;;;;2.33;1.60;;;5.50;72.50;;;;;;5094430;28;20058;-72
2020/12/04 02:07:08;;;;;;;2.50;1.87;;;5.50;71.90;;;;;;5094357;28;20028;-72
2020/12/04 02:09:41;;;;;;;3.53;1.60;;;5.60;72.00;;;;;;5093973;28;20055;-72
2020/12/04 02:12:08;;;;;;;2.50;1.60;;;5.60;72.40;;;;;;5094525;28;20122;-73
2020/12/04 02:14:34;;;;;;;4.63;1.87;;;5.60;71.80;;;;;;5093651;28;20115;-72
2020/12/04 02:17:04;;;;;;;3.37;1.80;;;5.60;72.40;;;;;;5095749;28;20062;-72
2020/12/04 02:19:38;;;;;;;3.03;1.63;;;5.70;71.00;;;;;;5093391;28;20060;-73
2020/12/04 02:22:04;;;;;;;3.40;2.00;;;5.70;71.50;;;;;;5094895;28;20050;-73
2020/12/04 02:24:30;;;;;;;3.63;2.30;;;5.70;71.00;;;;;;5093447;28;20028;-72
2020/12/04 02:26:56;;;;;;;4.10;2.13;;;5.70;70.80;;;;;;5093985;28;20023;-72
2020/12/04 02:29:23;;;;;;;4.43;2.70;;;5.70;70.70;;;;;;5094711;28;20024;-73
2020/12/04 02:31:48;;;;;;;4.07;2.13;;;5.70;70.10;;;;;;5094158;28;20142;-72
2020/12/04 02:34:14;;;;;;;3.33;2.10;;;5.70;70.30;;;;;;5093143;28;20522;-73
2020/12/04 02:36:39;;;;;;;3.57;2.00;;;5.70;69.20;;;;;;5093879;28;20114;-72
2020/12/04 02:39:06;;;;;;;2.93;1.77;;;;;;;;;;5093790;28;20127;-72
2020/12/04 02:41:31;;;;;;;3.23;1.93;;;5.70;68.80;;;;;;5093028;28;20035;-72
2020/12/04 02:43:57;;;;;;;3.97;2.07;;;5.80;69.40;;;;;;5093942;28;20028;-72
2020/12/04 02:46:22;;;;;;;4.00;2.30;;;5.70;69.10;;;;;;5093090;28;20158;-72
2020/12/04 02:48:48;;;;;;;2.73;1.80;;;;;;;;;;5093511;28;20507;-72
2020/12/04 02:51:14;;;;;;;3.70;2.03;;;5.80;68.50;;;;;;5092819;28;20074;-73
2020/12/04 02:53:39;;;;;;;3.33;1.83;;;6.10;70.20;;;;;;5093379;28;20031;-71
2020/12/04 02:56:05;;;;;;;4.80;1.97;;;5.80;68.80;;;;;;5093470;28;20031;-72
2020/12/04 02:58:31;;;;;;;3.07;1.73;;;5.90;69.40;;;;;;5092866;28;20375;-72
2020/12/04 03:00:57;;;;;;;3.10;1.70;;;5.90;69.30;;;;;;5094527;28;20540;-72
2020/12/04 03:03:23;;;;;;;4.13;2.03;;;5.80;69.50;;;;;;5091845;28;20464;-73
2020/12/04 03:05:48;;;;;;;2.97;2.03;;;5.80;69.60;;;;;;5094276;28;20385;-73
2020/12/04 03:08:14;;;;;;;2.80;1.87;;;5.80;69.30;;;;;;5092347;28;20461;-75
2020/12/04 03:10:39;;;;;;;2.70;1.80;;;5.80;69.60;;;;;;5093141;28;20028;-72
2020/12/04 03:13:05;;;;;;;3.33;1.90;;;5.80;69.60;;;;;;5094362;28;20089;-72
2020/12/04 03:15:31;;;;;;;2.87;1.70;;;5.80;70.00;;;;;;5093846;28;20085;-73
2020/12/04 03:17:56;;;;;;;1.90;1.70;;;5.80;69.90;;;;;;5092900;28;20024;-73
2020/12/04 03:20:22;;;;;;;3.40;1.73;;;5.80;69.90;;;;;;5092454;28;20060;-72
2020/12/04 03:22:48;;;;;;;4.40;1.90;;;5.90;70.30;;;;;;5092563;28;20142;-72
2020/12/04 03:25:13;;;;;;;3.27;1.70;;;5.90;70.30;;;;;;5094398;28;20449;-72
2020/12/04 03:27:39;;;;;;;2.73;1.40;;;5.90;70.60;;;;;;5093513;28;20540;-72
2020/12/04 03:30:05;;;;;;;2.23;1.50;;;5.90;71.00;;;;;;5092917;28;20051;-72
2020/12/04 03:32:31;;;;;;;2.87;1.80;;;5.90;70.70;;;;;;5093386;28;20162;-73
2020/12/04 03:34:57;;;;;;;1.83;1.10;;;5.90;71.00;;;;;;5092586;28;20483;-72
2020/12/04 03:37:25;;;;;;;1.70;1.00;;;6.00;70.30;;;;;;5092016;28;20020;-73
2020/12/04 03:39:51;;;;;;;1.77;0.90;;;6.10;69.80;;;;;;5092263;28;20028;-73
2020/12/04 03:42:16;;;;;;;1.57;1.00;;;6.20;69.60;;;;;;5091834;28;20028;-73
2020/12/04 03:44:42;;;;;;;2.33;1.20;;;6.30;68.30;;;;;;5092484;28;20034;-73
2020/12/04 03:47:07;;;;;;;3.07;1.17;;;6.40;68.40;;;;;;5092542;28;20058;-72
2020/12/04 03:49:33;;;;;;;2.30;1.30;;;6.40;68.70;;;;;;5091472;28;20366;-72
2020/12/04 03:51:59;;;;;;;1.83;1.17;;;6.40;69.40;;;;;;5091952;28;20138;-72
2020/12/04 03:54:24;;;;;;;2.90;1.17;;;5.90;70.60;;;;;;5091705;28;20020;-73
2020/12/04 03:56:50;;;;;;;1.63;1.03;;;5.70;69.20;;;;;;5093441;28;20150;-72
2020/12/04 03:59:15;;;;;;;2.40;1.20;;;6.60;69.90;;;;;;5093554;28;20024;-72
2020/12/04 04:01:41;;;;;;;2.33;1.03;;;6.50;73.50;;;;;;5091534;28;20124;-72
2020/12/04 04:04:07;;;;;;;2.97;0.90;;;;;;;;;;5092232;28;20032;-72
2020/12/04 04:06:33;;;;;;;1.70;1.00;;;6.80;71.70;;;;;;5091603;28;20362;-72
2020/12/04 04:08:58;;;;;;;1.67;1.07;;;6.50;74.60;;;;;;5092172;28;20078;-71
2020/12/04 04:11:24;;;;;;;2.43;1.30;;;6.50;71.60;;;;;;5091395;28;20028;-72
2020/12/04 04:13:49;;;;;;;3.37;1.27;;;6.60;71.00;;;;;;5092156;28;20028;-73
2020/12/04 04:16:15;;;;;;;2.83;1.13;;;6.70;70.50;;;;;;5091909;28;20031;-73
2020/12/04 04:18:41;;;;;;;2.10;1.10;;;6.70;71.00;;;;;;5091058;28;20031;-72
2020/12/04 04:21:11;;;;;;;1.90;1.17;;;6.80;70.30;;;;;;5091879;28;20495;-72
2020/12/04 04:23:37;;;;;;;2.30;1.40;;;6.80;70.00;;;;;;5092183;28;20054;-73
2020/12/04 04:26:03;;;;;;;3.50;1.13;;;6.90;69.30;;;;;;5091765;28;20426;-72
2020/12/04 04:28:28;;;;;;;2.30;1.10;;;6.90;68.90;;;;;;5091295;28;20031;-73
2020/12/04 04:30:54;;;;;;;1.80;1.10;;;7.00;68.70;;;;;;5092039;28;20048;-73
2020/12/04 04:33:20;;;;;;;1.70;0.90;;;7.20;67.80;;;;;;5091317;28;20021;-74
2020/12/04 04:35:45;;;;;;;2.93;1.17;;;7.20;67.80;;;;;;5093010;28;20114;-72
2020/12/04 04:38:11;;;;;;;1.20;0.90;;;7.20;68.30;;;;;;5091606;28;20030;-73
2020/12/04 04:40:37;;;;;;;1.50;1.00;;;7.20;68.40;;;;;;5091087;28;20027;-73
2020/12/04 04:43:07;;;;;;;1.93;1.20;;;7.20;68.50;;;;;;5092846;28;20032;-73
2020/12/04 04:45:34;;;;;;;1.57;1.03;;;7.30;68.40;;;;;;5091094;28;20020;-73
2020/12/04 04:48:02;;;;;;;1.47;1.10;;;7.20;68.40;;;;;;5092750;28;20028;-73
2020/12/04 04:50:28;;;;;;;1.53;0.77;;;7.30;68.40;;;;;;5092227;28;20054;-73
2020/12/04 04:52:55;;;;;;;1.23;1.03;;;7.20;68.50;;;;;;5091475;28;20070;-73
2020/12/04 04:55:20;;;;;;;1.13;1.03;;;7.30;68.20;;;;;;5092423;28;20107;-75
2020/12/04 04:57:46;;;;;;;3.00;1.00;;;7.30;68.10;;;;;;5091439;28;20545;-73
2020/12/04 05:00:12;;;;;;;2.90;0.70;;;7.30;68.20;;;;;;5092275;28;20024;-73
2020/12/04 05:02:37;;;;;;;1.23;0.80;;;7.30;68.50;;;;;;5090637;28;20103;-72
2020/12/04 05:05:03;;;;;;;1.10;0.60;;;7.40;68.00;;;;;;5095345;28;20032;-74
2020/12/04 05:07:35;;;;;;;0.70;0.50;;;7.50;67.80;;;;;;5090746;28;20031;-73
2020/12/04 05:10:14;;;;;;;1.00;0.40;;;7.60;67.50;;;;;;5080621;28;20027;-73
2020/12/04 05:12:42;;;;;;;0.63;0.40;;;7.60;67.50;;;;;;5091594;28;20241;-73
2020/12/04 05:15:23;;;;;;;0.87;0.43;;;7.70;67.30;;;;;;5091804;28;20025;-73
2020/12/04 05:18:24;;;;;;;1.02;0.50;;;7.80;66.90;;;;;;5090440;28;20027;-73
2020/12/04 05:20:53;;;;;;;0.30;0.30;;;7.90;67.00;;;;;;5018611;28;20202;-73
2020/12/04 05:23:19;;;;;;;0.30;0.20;;;7.90;66.80;;;;;;5071646;28;20446;-73
2020/12/04 05:25:47;;;;;;;0.60;0.60;;;7.90;66.90;;;;;;5091016;28;20024;-73
2020/12/04 05:28:15;;;;;;;0.50;0.40;;;7.80;67.00;;;;;;5094589;28;20074;-73
2020/12/04 05:30:44;;;;;;;0.83;0.40;;;7.80;67.40;;;;;;5093920;28;20024;-73
2020/12/04 05:33:10;;;;;;;1.37;0.50;;;7.80;67.60;;;;;;5095854;28;20039;-73
2020/12/04 05:35:37;;;;;;;1.30;0.67;;;7.70;67.70;;;;;;5093931;28;20059;-73
2020/12/04 05:38:11;;;;;;;1.70;0.50;;;7.80;68.10;;;;;;5094534;28;20036;-73
2020/12/04 05:40:38;;;;;;;1.17;0.60;;;7.70;68.70;;;;;;5093778;28;20469;-73
2020/12/04 05:43:04;;;;;;;1.00;0.60;;;7.60;68.70;;;;;;5095373;28;20028;-72
2020/12/04 05:45:31;;;;;;;2.80;0.80;;;7.60;69.10;;;;;;5093616;28;20063;-73
2020/12/04 05:47:57;;;;;;;1.13;0.70;;;7.60;69.40;;;;;;5093876;28;20031;-73
2020/12/04 05:50:23;;;;;;;1.50;0.70;;;7.60;70.10;;;;;;5091152;28;20025;-75
2020/12/04 05:52:50;;;;;;;1.20;0.70;;;7.60;70.50;;;;;;5094635;28;20111;-73
2020/12/04 05:55:16;;;;;;;0.67;0.43;;;7.60;70.00;;;;;;5094215;28;20028;-73
2020/12/04 05:57:45;;;;;;;3.17;0.47;;;7.70;69.90;;;;;;5094985;28;20020;-73
2020/12/04 06:00:13;;;;;;;0.70;0.40;;;7.70;69.70;;;;;;5095667;28;20504;-73
2020/12/04 06:02:39;;;;;;;0.93;0.40;;;7.80;69.90;;;;;;5093312;28;20050;-72
2020/12/04 06:05:05;;;;;;;0.77;0.30;;;7.70;70.40;;;;;;5094131;28;20078;-72
2020/12/04 06:07:31;;;;;;;0.70;0.30;;;7.80;70.10;;;;;;5093398;28;20051;-72
2020/12/04 06:09:57;;;;;;;0.40;0.30;;;7.80;69.80;;;;;;5094148;28;20063;-72
2020/12/04 06:12:24;;;;;;;0.80;0.30;;;7.80;69.40;;;;;;5093624;28;20522;-71
2020/12/04 06:14:50;;;;;;;0.50;0.30;;;7.90;69.30;;;;;;5094845;28;20028;-72
2020/12/04 06:17:16;;;;;;;0.30;0.10;;;7.90;69.00;;;;;;5094188;28;20024;-72
2020/12/04 06:19:43;;;;;;;0.50;0.30;;;8.00;68.60;;;;;;5094011;28;20036;-72
2020/12/04 06:22:13;;;;;;;0.60;0.30;;;8.00;68.40;;;;;;5094846;28;20032;-72
2020/12/04 06:24:58;;;;;;;0.40;0.30;;;8.00;68.40;;;;;;5093279;28;20119;-73
2020/12/04 06:27:41;;;;;;;0.50;0.20;;;8.00;67.90;;;;;;5093952;28;20039;-72
2020/12/04 06:30:10;;;;;;;0.30;0.23;;;8.10;67.50;;;;;;5094077;28;20115;-72
2020/12/04 06:32:48;;;;;;;0.97;0.30;;;8.10;67.40;;;;;;5093099;28;20385;-72
2020/12/04 06:35:31;;;;;;;0.97;0.33;;;8.10;67.50;;;;;;5093916;28;20016;-72
2020/12/04 06:37:57;;;;;;;0.50;0.20;;;8.10;67.00;;;;;;5092525;28;20028;-72
2020/12/04 06:40:28;;;;;;;0.83;0.33;;;8.20;66.90;;;;;;5093420;28;20020;-72
2020/12/04 06:42:56;;;;;;;0.60;0.30;;;8.20;66.70;;;;;;5093044;28;20119;-72
2020/12/04 06:45:22;;;;;;;1.13;0.60;;;8.20;66.40;;;;;;5093394;28;20032;-73
2020/12/04 06:48:13;;;;;;;1.23;0.43;;;8.20;66.20;;;;;;5093161;28;20169;-72
2020/12/04 06:50:46;;;;;;;0.30;0.30;;;8.30;65.80;;;;;;5092106;28;20544;-73
2020/12/04 06:53:14;;;;;;;0.50;0.30;;;8.30;65.40;;;;;;5093501;28;20078;-72
2020/12/04 06:55:40;;;;;;;0.67;0.30;;;8.80;66.20;;;;;;5092243;28;20028;-73
2020/12/04 06:58:07;;;;;;;0.80;0.30;;;8.30;65.20;;;;;;5093108;28;20028;-73
2020/12/04 07:00:34;;;;;;;0.73;0.40;;;8.30;65.90;;;;;;5093703;28;20028;-73
2020/12/04 07:03:01;;;;;;;0.70;0.30;;;8.40;65.80;;;;;;5092276;28;20028;-73
2020/12/04 07:05:28;;;;;;;2.00;0.57;;;8.40;65.90;;;;;;5092740;28;20131;-74
2020/12/04 07:08:02;;;;;;;2.43;0.30;;;8.40;65.40;;;;;;5094215;28;20031;-75
2020/12/04 07:10:30;;;;;;;0.87;0.40;;;8.40;65.00;;;;;;5093897;28;20031;-76
2020/12/04 07:13:00;;;;;;;0.60;0.30;;;8.50;65.10;;;;;;5092549;28;20028;-73
2020/12/04 07:15:27;;;;;;;0.20;0.20;;;8.50;64.90;;;;;;5092850;28;20027;-74
2020/12/04 07:17:53;;;;;;;0.23;0.23;;;8.50;64.60;;;;;;5093815;28;20061;-74
2020/12/04 07:20:19;;;;;;;0.50;0.30;;;8.50;64.40;;;;;;5092903;28;20070;-73
2020/12/04 07:22:45;;;;;;;0.60;0.50;;;8.50;64.00;;;;;;5091641;28;20135;-74
2020/12/04 07:25:11;;;;;;;1.00;0.40;;;8.60;64.00;;;;;;5093853;28;20471;-74
2020/12/04 07:27:38;;;;;;;1.10;0.70;;;8.70;63.90;;;;;;5091917;28;20024;-74
2020/12/04 07:30:25;;;;;;;1.67;0.90;;;8.70;64.00;;;;;;5092486;28;20051;-74
2020/12/04 07:32:52;;;;;;;1.87;1.00;;;8.70;63.50;;;;;;5091841;28;20058;-74
2020/12/04 07:35:19;;;;;;;0.93;0.40;;;8.70;63.90;;;;;;5092429;28;20028;-74
2020/12/04 07:37:45;;;;;;;0.57;0.57;;;8.40;63.20;;;;;;5091552;28;20031;-74
2020/12/04 07:40:13;;;;;;;0.60;0.40;;;8.70;63.30;;;;;;5092217;28;20020;-74
2020/12/04 07:42:39;;;;;;;1.65;0.68;;;8.80;63.40;;;;;;5092654;28;20024;-74
2020/12/04 07:45:05;;;;;;;0.85;0.30;;;8.70;63.90;;;;;;5092122;28;20089;-74
2020/12/04 07:47:31;;;;;;;1.90;0.40;;;8.70;63.80;;;;;;5091872;28;20469;-76
2020/12/04 07:50:00;;;;;;;2.10;0.20;;;8.80;63.60;;;;;;5091172;28;20039;-73
2020/12/04 07:52:29;;;;;;;0.47;0.30;;;8.80;63.60;;;;;;5092027;28;20036;-74
2020/12/04 07:55:06;;;;;;;0.57;0.30;;;8.70;62.80;;;;;;5092976;28;20023;-74
2020/12/04 07:57:41;;;;;;;2.70;0.37;;;8.80;63.00;;;;;;5091703;28;20068;-76
2020/12/04 08:00:07;;;;;;;1.07;0.40;;;8.80;63.60;;;;;;5091852;28;20110;-74
2020/12/04 08:02:33;;;;;;;0.67;0.50;;;8.80;63.40;;;;;;5092432;28;20020;-76
2020/12/04 08:04:59;;;;;;;0.35;0.30;;;8.80;63.40;;;;;;5091763;28;20024;-74
2020/12/04 08:07:30;;;;;;;0.40;0.20;;;8.80;63.30;;;;;;5091728;28;20031;-74
2020/12/04 08:09:56;;;;;;;0.97;0.40;;;8.90;63.20;;;;;;5091078;28;20372;-74
2020/12/04 08:12:32;;;;;;;0.85;0.50;;;8.90;63.00;;;;;;5092605;28;20032;-74
2020/12/04 08:15:00;;;;;;;1.43;0.40;;;8.90;62.80;;;;;;5092251;28;20107;-74
2020/12/04 08:17:30;;;;;;;0.60;0.40;;;9.00;63.20;;;;;;5092946;28;20031;-73
2020/12/04 08:19:59;;;;;;;1.10;0.60;;;9.10;63.60;;;;;;5087734;28;20032;-74
2020/12/04 08:22:32;;;;;;;0.40;0.30;;;9.10;63.10;;;;;;5091183;28;20056;-74
2020/12/04 08:27:31;;;;;;;0.77;0.40;;;9.10;62.90;;;;;;5092832;28;20058;-73
2020/12/04 08:30:15;;;;;;;0.35;0.25;;;9.10;62.90;;;;;;5090954;28;20039;-74
2020/12/04 08:32:43;;;;;;;0.50;0.35;;;9.10;63.70;;;;;;5092057;28;20129;-74
2020/12/04 08:35:17;;;;;;;1.05;0.73;;;9.20;63.50;;;;;;5091391;28;20020;-74
2020/12/04 08:37:45;;;;;;;0.80;0.40;;;9.20;63.60;;;;;;5091856;28;20024;-74
2020/12/04 08:40:29;;;;;;;0.20;0.20;;;9.20;63.70;;;;;;5091012;28;20039;-74
2020/12/04 08:43:11;;;;;;;0.20;0.10;;;9.20;63.60;;;;;;5090525;28;20032;-74
2020/12/04 08:45:39;;;;;;;0.28;0.20;;;9.20;63.80;;;;;;5090862;28;20032;-75
2020/12/04 08:48:10;;;;;;;0.38;0.20;;;9.20;63.80;;;;;;5091352;28;20071;-73
2020/12/04 08:50:48;;;;;;;0.60;0.30;;;9.20;63.80;;;;;;5090989;28;20032;-76
2020/12/04 08:53:16;;;;;;;0.65;0.20;;;9.20;63.30;;;;;;5092455;28;20036;-73
2020/12/04 08:55:55;;;;;;;0.93;0.47;;;9.10;64.10;;;;;;5091448;28;20426;-72
2020/12/04 08:58:22;;;;;;;0.47;0.20;;;9.10;64.30;;;;;;5091289;28;20024;-71
2020/12/04 09:00:50;;;;;;;0.77;0.40;;;9.10;64.30;;;;;;5090611;28;20110;-73
2020/12/04 09:03:17;;;;;;;1.98;0.60;;;9.00;64.40;;;;;;5095294;28;20036;-73
2020/12/04 09:05:43;;;;;;;3.58;1.10;;;9.00;64.40;;;;;;5094516;28;20032;-73
2020/12/04 09:08:10;;;;;;;3.63;0.90;;;9.00;64.20;;;;;;5094899;28;20028;-73
2020/12/04 09:10:36;;;;;;;0.95;0.52;;;9.00;64.70;;;;;;5094835;28;20020;-74
2020/12/04 09:13:03;;;;;;;2.47;0.57;;;9.10;64.70;;;;;;5094783;28;20461;-73
2020/12/04 09:15:29;;;;;;;1.33;0.60;;;9.00;65.00;;;;;;5094433;28;20051;-73
2020/12/04 09:17:56;;;;;;;0.40;0.28;;;9.00;65.30;;;;;;5093639;28;20032;-72
2020/12/04 09:20:24;;;;;;;0.60;0.35;;;9.00;65.80;;;;;;5095035;28;20036;-73
2020/12/04 09:22:50;;;;;;;0.65;0.40;;;9.00;66.30;;;;;;5093790;28;20058;-73
2020/12/04 09:25:16;;;;;;;0.90;0.50;;;9.00;66.80;;;;;;5094892;28;20031;-73
2020/12/04 09:27:43;;;;;;;2.22;0.60;;;8.90;67.20;;;;;;5094167;28;20090;-73
2020/12/04 09:30:11;;;;;;;1.88;0.57;;;8.90;67.80;;;;;;5088492;28;20024;-75
2020/12/04 09:32:37;;;;;;;2.05;1.00;;;8.80;68.80;;;;;;5094018;28;20469;-75
2020/12/04 09:35:05;;;;;;;1.20;0.60;;;8.80;69.60;;;;;;5092987;28;20035;-73
2020/12/04 09:37:33;;;;;;;1.63;0.60;;;8.70;70.90;;;;;;5093894;28;20030;-73
2020/12/04 09:40:18;;;;;;;1.63;0.70;;;8.60;70.50;;;;;;5093925;28;20016;-73
2020/12/04 09:42:46;;;;;;;1.35;0.90;;;8.60;70.90;;;;;;5092289;28;20028;-73
2020/12/04 09:45:13;;;;;;;1.35;0.80;;;8.60;71.00;;;;;;5093520;28;20055;-73
2020/12/04 09:47:39;;;;;;;2.27;1.40;;;8.50;71.10;;;;;;5092849;28;20016;-75
2020/12/04 09:50:11;;;;;;;2.63;0.90;;;8.50;72.70;;;;;;5093111;28;20030;-73
2020/12/04 09:52:38;;;;;;;;;;;8.50;72.90;;;;;;5085428;28;20032;-74
2020/12/04 09:55:05;;;;;;;1.53;1.00;;;8.40;73.90;;;;;;5093066;28;19911;-74
2020/12/04 09:57:33;;;;;;;3.53;1.10;;;8.40;73.90;;;;;;5093446;28;20024;-72
2020/12/04 09:59:59;;;;;;;2.00;0.90;;;8.40;74.40;;;;;;5092839;28;20103;-73
2020/12/04 10:02:24;;;;;;;1.60;0.70;;;8.30;74.90;;;;;;5093126;28;20119;-72
2020/12/04 10:04:50;;;;;;;1.53;0.87;;;8.30;75.40;;;;;;5092698;28;20123;-72
2020/12/04 10:07:16;;;;;;;1.07;0.63;;;8.30;75.10;;;;;;5093766;28;20035;-72
2020/12/04 10:09:41;;;;;;;0.95;0.68;;;8.30;75.10;;;;;;5092869;28;20031;-72
2020/12/04 10:12:07;;;;;;;1.83;0.73;;;8.30;75.60;;;;;;5094276;28;20475;-71
2020/12/04 10:14:34;;;;;;;2.38;0.90;;;8.30;75.70;;;;;;5090070;28;20024;-71
2020/12/04 10:17:00;;;;;;;1.10;0.77;;;8.30;75.70;;;;;;5092391;28;20239;-71
2020/12/04 10:19:26;;;;;;;1.60;0.80;;;8.30;75.90;;;;;;5094306;28;20073;-72
2020/12/04 10:21:52;;;;;;;1.50;0.85;;;8.30;75.60;;;;;;5093040;28;20114;-70
2020/12/04 10:24:19;;;;;;;2.28;0.98;;;8.30;76.20;;;;;;5094529;28;20126;-71
2020/12/04 10:26:47;;;;;;;2.10;0.95;;;8.40;76.60;;;;;;5093672;28;20024;-71
2020/12/04 10:29:13;;;;;;;1.45;1.02;;;8.40;76.40;;;;;;5092522;28;20016;-71
2020/12/04 10:31:39;;;;;;;1.90;0.60;;;8.40;77.00;;;;;;5092555;28;20055;-72
2020/12/04 10:34:05;;;;;;;0.85;0.55;;;8.30;76.70;;;;;;5092602;28;20108;-70
2020/12/04 10:36:31;;;;;;;1.05;0.70;;;8.30;76.70;;;;;;5092080;28;20024;-70
2020/12/04 10:38:58;;;;;;;1.48;0.52;;;8.30;77.40;;;;;;5093357;28;20073;-69
2020/12/04 10:41:25;;;;;;;0.73;0.50;;;8.30;77.40;;;;;;5091932;28;20028;-72
2020/12/04 10:43:51;;;;;;;0.73;0.52;;;8.30;77.50;;;;;;5092701;28;20081;-71
2020/12/04 10:46:17;;;;;;;0.65;0.47;;;8.30;77.30;;;;;;5092093;28;20028;-71
2020/12/04 10:48:43;;;;;;;1.27;0.70;;;8.30;77.50;;;;;;5093194;28;20036;-74
2020/12/04 10:51:08;;;;;;;1.38;0.70;;;8.30;77.80;;;;;;5092835;28;20534;-72
2020/12/04 10:53:34;;;;;;;0.93;0.40;;;8.30;77.90;;;;;;5093856;28;20024;-72
2020/12/04 10:56:00;;;;;;;0.88;0.50;;;8.30;77.70;;;;;;5092771;28;20097;-71
2020/12/04 10:58:25;;;;;;;1.47;0.60;;;8.30;77.40;;;;;;5091804;28;20030;-71
2020/12/04 11:00:51;;;;;;;1.67;0.40;;;8.30;77.70;;;;;;5091137;28;20020;-71
2020/12/04 11:05:47;;;;;;;1.07;0.50;;;8.30;77.60;;;;;;5093199;28;20119;-71
2020/12/04 11:08:14;;;;;;;0.90;0.50;;;8.30;77.90;;;;;;5092675;28;20127;-71
2020/12/04 11:10:41;;;;;;;1.27;0.50;;;8.30;78.80;;;;;;5093621;28;20024;-73
2020/12/04 11:13:07;;;;;;;1.20;0.60;;;8.20;78.10;;;;;;5092046;28;20028;-71
2020/12/04 11:15:33;;;;;;;0.80;0.50;;;8.20;78.50;;;;;;5092123;28;20479;-70
2020/12/04 11:17:58;;;;;;;0.57;0.37;;;8.30;78.70;;;;;;5091128;28;20035;-71
2020/12/04 11:20:24;;;;;;;1.52;0.70;;;8.30;78.70;;;;;;5093187;28;20492;-70
2020/12/04 11:22:51;;;;;;;0.53;0.37;;;8.20;78.80;;;;;;5090828;28;20051;-71
2020/12/04 11:25:18;;;;;;;1.00;0.67;;;8.30;78.80;;;;;;5103658;28;20039;-73
2020/12/04 11:27:45;;;;;;;1.03;0.73;;;8.30;78.80;;;;;;5092789;28;20036;-72
2020/12/04 11:39:03;;;;;;;2.60;1.10;;;8.20;79.90;;;;;;4970477;28;20062;-81
2020/12/04 11:41:30;;;;;;;1.90;1.13;;;8.20;80.00;;;;;;4972110;28;20483;-80
2020/12/04 11:43:56;;;;;;;1.20;0.77;;;8.20;80.20;;;;;;4973141;28;20054;-80
2020/12/04 11:46:22;;;;;;;1.93;0.90;;;8.20;80.10;;;;;;4975075;28;20483;-79
2020/12/04 11:48:48;;;;;;;5.97;3.25;;;8.10;80.50;;;;;;4974568;28;20027;-79
2020/12/04 11:51:13;;;;;;;6.73;4.40;;;8.10;80.90;;;;;;4973121;28;20467;-78
2020/12/04 11:53:39;;;;;;;1.00;0.80;;;8.00;80.70;;;;;;4973539;28;20033;-78
2020/12/04 11:56:06;;;;;;;3.50;0.97;;;8.00;81.10;;;;;;4957974;28;20387;-79
2020/12/04 11:58:32;;;;;;;1.47;0.70;;;8.00;81.10;;;;;;4957509;28;20038;-78
2020/12/04 12:00:57;;;;;;;1.57;0.80;;;8.00;81.60;;;;;;4972602;28;20027;-82
2020/12/04 12:03:23;;;;;;;1.63;1.20;;;8.00;81.20;;;;;;4973159;28;20053;-78
2020/12/04 12:05:49;;;;;;;1.13;0.70;;;8.00;81.60;;;;;;4974238;28;20035;-80
2020/12/04 12:08:14;;;;;;;1.57;0.80;;;8.00;81.50;;;;;;4939204;28;20070;-80
2020/12/04 12:10:40;;;;;;;1.00;0.60;;;8.00;81.40;;;;;;4957121;28;20085;-80
2020/12/04 12:13:06;;;;;;;1.93;0.77;;;8.00;81.20;;;;;;4973645;28;20031;-79
2020/12/04 12:15:31;;;;;;;4.17;0.80;;;8.00;81.40;;;;;;4971621;28;20030;-78
2020/12/04 12:17:57;;;;;;;1.23;0.90;;;8.00;81.60;;;;;;4955392;28;20037;-78
2020/12/04 12:20:23;;;;;;;2.80;0.90;;;8.00;81.40;;;;;;4972979;28;20118;-78
2020/12/04 12:22:48;;;;;;;3.53;0.70;;;8.00;81.10;;;;;;4972307;28;20066;-81
2020/12/04 12:25:14;;;;;;;2.57;0.90;;;8.00;81.40;;;;;;4972852;28;20052;-77
2020/12/04 12:27:41;;;;;;;2.90;1.23;;;8.00;81.60;;;;;;4956496;28;20051;-78
2020/12/04 12:30:07;;;;;;;3.00;1.00;;;8.00;81.70;;;;;;4956178;28;20026;-78
2020/12/04 12:32:33;;;;;;;4.17;1.20;;;8.00;81.70;;;;;;4955990;28;20027;-77
2020/12/04 12:35:00;;;;;;;2.07;1.10;;;8.10;81.80;;;;;;4972284;28;20023;-76
2020/12/04 12:37:26;;;;;;;1.07;0.90;;;8.00;81.70;;;;;;4964789;28;20516;-77
2020/12/04 12:39:52;;;;;;;1.30;0.90;;;8.00;82.10;;;;;;4974982;28;20038;-77
2020/12/04 12:42:18;;;;;;;2.13;0.90;;;8.00;82.30;;;;;;4992469;28;20427;-77
2020/12/04 12:44:45;;;;;;;1.97;1.00;;;8.00;82.60;;;;;;4974833;28;20038;-77
2020/12/04 12:47:11;;;;;;;2.25;1.00;;;8.00;82.90;;;;;;4975679;28;20050;-77
2020/12/04 12:49:37;;;;;;;1.10;0.90;;;8.00;83.20;;;;;;4975394;28;20027;-77
2020/12/04 12:52:04;;;;;;;1.83;0.90;;;8.00;83.60;;;;;;4992863;28;20084;-77
2020/12/04 12:54:30;;;;;;;2.80;1.00;;;8.00;83.70;;;;;;4993033;28;20032;-76
2020/12/04 12:56:56;;;;;;;1.77;0.90;;;8.00;83.40;;;;;;4974938;28;20026;-76
2020/12/04 12:59:25;;;;;;;2.37;0.80;;;8.00;83.40;;;;;;4974931;28;20026;-77
2020/12/04 13:01:52;;;;;;;1.20;0.80;;;8.00;82.50;;;;;;4991238;28;20037;-78
2020/12/04 13:04:18;;;;;;;1.67;0.87;;;8.00;82.40;;;;;;4992469;28;20046;-78
2020/12/04 13:06:45;;;;;;;2.35;0.90;;;8.00;82.30;;;;;;4974777;28;20026;-78
2020/12/04 13:09:11;;;;;;;1.40;0.90;;;8.00;82.30;;;;;;4975254;28;20130;-78
2020/12/04 13:11:37;;;;;;;2.63;1.00;;;8.00;82.00;;;;;;4975476;28;20062;-76